Ottawa, Ontario

21:27 EDT dnia 03-wrzesień-2015 (GMT -0400)
Ottawa-Macdonald-Cartier International | | Change Station
CLOSE
Current Station
Lotnisko
Location: Ottawa International,
n.p.m.: 374 ft
Najbliższa stacja pogodowa

Wysokość 374 ft 45.32 °N, 75.67 °W | Updated 27 minutes ago

Clear
pogodnie
72 ° F
Odczuwalna 72 ° F
Płn.
7
Wiatr zmienny Wiatr od północny

Dziś
Wysoka -- | Niska -- ° F
--% Prawdop. opadów
Wczoraj
Wysoka -- | Niska -- ° F
Precip. -- cali
6:26 AM 7:36 PM
Zmniejszający się Księżyc, 65% visible
Ciśnienie 29.99 cali
Widzialność 15.0 mil
chmury pogodnie
Punkt rosy 59 ° F
Wilgotność 64%
Opady deszczu 0.00 cali
grubość pokrywy śnieżnej Niedostępne.
UV 0 z 12
Pyłki Niedostępne.
Jakość powietrza Niedostępne.
Flu Activity Niedostępne.
METAR CYOW 040100Z 36006KT 15SM SKC 22/15 A2999 RMK SLP156 DENSITY ALT 1100FT
Ciśnienie 29.99 cali
Widzialność 15.0 mil
chmury pogodnie
Punkt rosy 59 ° F
Wilgotność 64%
Opady deszczu 0.00 cali
grubość pokrywy śnieżnej Niedostępne.
UV 0 z 12
Pyłki Niedostępne.
Jakość powietrza Niedostępne.
Flu Activity Niedostępne.
METAR CYOW 040100Z 36006KT 15SM SKC 22/15 A2999 RMK SLP156 DENSITY ALT 1100FT

10-Day Weather Forecast

×

Almanac

Astronomia

Sep. 03, 2015 Wschód Zachów
Aktualny czas
Zmierzch cywilny
Zmierzch żeglarski
świt/zmierzch astronomiczny
Księżyc
całkowite oświetlenie
Długość dnia
Tomorrow will be .
, % of the Moon is Illuminated

Dzisiejsze ekstrema

Country Highs Country Lows

Community

WunderPhotos

Upload Photos

1,852,081 zdjęcia zostały przesłane!

WunderBlogs® & News

Nearby

Jakość powietrza

  Jakość powietrza czynnik AQ Zanieczyszczenie
Not available.

Głębokość pokrywy śnieżnej

Station Depth n.p.m.

Aktywność sejsmiczna

Miejscowość Distance Mag. Time & Date
Minimum magnitude displayed is 2.5.

Temperatury wody na wybrzeżu

Miejsce Temperatura

Stations

Najbliższa stacja pogodowa

Lokalizacja stacji Temp. czynnik chłodzący wiatru Punkt rosy Wilgotność Wiatr Precip. Wysokość Uaktualniono Typ